createdAt,value
2018-08-09T00:00:09.856Z,6.10
2018-08-09T00:02:38.764Z,5.00
2018-08-09T00:05:07.714Z,6.23
2018-08-09T00:07:36.576Z,5.87
2018-08-09T00:10:06.068Z,5.80
2018-08-09T00:12:34.988Z,5.93
2018-08-09T00:15:04.470Z,5.10
2018-08-09T00:17:33.379Z,4.70
2018-08-09T00:20:02.311Z,5.67
2018-08-09T00:22:31.225Z,6.70
2018-08-09T00:25:00.068Z,5.70
2018-08-09T00:27:28.938Z,4.90
2018-08-09T00:29:57.815Z,6.00
2018-08-09T00:32:26.646Z,6.33
2018-08-09T00:34:55.455Z,5.47
2018-08-09T00:37:24.344Z,5.17
2018-08-09T00:39:53.179Z,4.90
2018-08-09T00:42:22.046Z,6.40
2018-08-09T00:44:50.935Z,5.20
2018-08-09T00:47:19.782Z,6.10
2018-08-09T00:49:48.623Z,5.70
2018-08-09T00:52:17.531Z,5.87
2018-08-09T00:54:46.376Z,4.67
2018-08-09T00:57:15.215Z,5.73
2018-08-09T00:59:44.081Z,5.47
2018-08-09T01:02:12.919Z,5.63
2018-08-09T01:04:41.754Z,5.03
2018-08-09T01:07:10.602Z,5.33
2018-08-09T01:09:39.425Z,5.20
2018-08-09T01:12:08.398Z,5.33
2018-08-09T01:14:37.226Z,4.90
2018-08-09T01:17:06.139Z,6.10
2018-08-09T01:19:35.090Z,6.90
2018-08-09T01:22:04.136Z,6.33
2018-08-09T01:24:33.002Z,6.30
2018-08-09T01:27:01.875Z,5.60
2018-08-09T01:29:30.763Z,6.37
2018-08-09T01:31:59.647Z,6.30
2018-08-09T01:34:28.503Z,6.47
2018-08-09T01:36:57.375Z,6.03
2018-08-09T01:39:26.207Z,6.20
2018-08-09T01:42:12.114Z,6.50
2018-08-09T01:44:40.958Z,5.80
2018-08-09T01:47:09.810Z,6.43
2018-08-09T01:49:38.664Z,7.37
2018-08-09T01:52:07.592Z,5.83
2018-08-09T01:54:36.495Z,6.10
2018-08-09T01:57:05.348Z,6.63
2018-08-09T01:59:34.237Z,6.63
2018-08-09T02:02:03.270Z,6.20
2018-08-09T02:04:32.137Z,7.50
2018-08-09T02:07:01.048Z,6.50
2018-08-09T02:09:31.713Z,6.93
2018-08-09T02:12:01.982Z,7.00
2018-08-09T02:14:30.923Z,6.43
2018-08-09T02:17:00.173Z,6.70
2018-08-09T02:19:29.268Z,6.27
2018-08-09T02:21:58.158Z,7.27
2018-08-09T02:24:27.035Z,6.37
2018-08-09T02:26:55.945Z,7.40
2018-08-09T02:29:24.791Z,5.87
2018-08-09T02:31:53.679Z,6.90
2018-08-09T02:34:22.547Z,7.20
2018-08-09T02:36:51.382Z,7.03
2018-08-09T02:39:20.239Z,7.20
2018-08-09T02:41:49.155Z,6.73
2018-08-09T02:44:18.012Z,6.67
2018-08-09T02:46:46.874Z,7.20
2018-08-09T02:49:15.707Z,7.63
2018-08-09T02:51:44.644Z,6.57
2018-08-09T02:54:13.529Z,7.30
2018-08-09T02:56:42.359Z,6.40
2018-08-09T02:59:11.219Z,7.40
2018-08-09T03:01:40.150Z,8.20
2018-08-09T03:04:09.032Z,7.37
2018-08-09T03:06:37.887Z,7.83
2018-08-09T03:09:10.602Z,6.87
2018-08-09T03:11:39.853Z,7.67
2018-08-09T03:14:08.721Z,8.17
2018-08-09T03:16:37.661Z,7.53
2018-08-09T03:19:06.700Z,6.80
2018-08-09T03:21:35.631Z,8.13
2018-08-09T03:24:04.594Z,8.17
2018-08-09T03:26:33.455Z,7.67
2018-08-09T03:29:02.318Z,8.10
2018-08-09T03:31:31.567Z,7.37
2018-08-09T03:34:00.395Z,8.67
2018-08-09T03:36:29.236Z,8.33
2018-08-09T03:38:58.260Z,7.37
2018-08-09T03:41:27.222Z,7.80
2018-08-09T03:43:56.157Z,7.80
2018-08-09T03:46:25.159Z,8.93
2018-08-09T03:48:54.120Z,7.80
2018-08-09T03:51:29.873Z,8.40
2018-08-09T03:53:58.743Z,8.90
2018-08-09T03:56:27.653Z,7.97
2018-08-09T03:58:56.495Z,8.63
2018-08-09T04:01:25.401Z,8.33
2018-08-09T04:03:54.293Z,8.37
2018-08-09T04:06:23.457Z,8.30
2018-08-09T04:08:52.342Z,7.20
2018-08-09T04:11:21.203Z,8.70
2018-08-09T04:13:50.050Z,8.90
2018-08-09T04:16:18.895Z,8.43
2018-08-09T04:18:48.415Z,8.20
2018-08-09T04:21:18.418Z,8.60
2018-08-09T04:23:47.742Z,8.27
2018-08-09T04:26:16.840Z,7.67
2018-08-09T04:28:45.976Z,9.17
2018-08-09T04:31:16.118Z,8.40
2018-08-09T04:33:45.901Z,9.10
2018-08-09T04:36:15.522Z,7.73
2018-08-09T04:38:45.243Z,9.20
2018-08-09T04:41:15.055Z,8.70
2018-08-09T04:43:44.528Z,8.33
2018-08-09T04:46:14.103Z,8.70
2018-08-09T04:48:43.204Z,8.93
2018-08-09T04:51:12.207Z,8.83
2018-08-09T04:53:42.130Z,8.50
2018-08-09T04:56:10.995Z,9.27
2018-08-09T04:58:39.859Z,9.00
2018-08-09T05:01:09.171Z,8.67
2018-08-09T05:03:38.182Z,8.83
2018-08-09T05:06:07.067Z,9.10
2018-08-09T05:08:35.959Z,10.20
2018-08-09T05:11:04.822Z,8.93
2018-08-09T05:13:33.731Z,9.50
2018-08-09T05:16:02.663Z,8.07
2018-08-09T05:18:31.716Z,9.40
2018-08-09T05:21:00.570Z,10.20
2018-08-09T05:23:30.531Z,10.87
2018-08-09T05:25:59.344Z,9.60
2018-08-09T05:28:28.931Z,11.10
2018-08-09T05:30:57.832Z,9.33
2018-08-09T05:33:26.979Z,10.00
2018-08-09T05:35:55.852Z,9.83
2018-08-09T05:38:24.703Z,10.50
2018-08-09T05:40:53.526Z,9.63
2018-08-09T05:43:22.433Z,13.90
2018-08-09T05:45:51.311Z,13.97
2018-08-09T05:48:20.354Z,13.33
2018-08-09T05:50:49.323Z,19.03
2018-08-09T05:53:18.276Z,14.67
2018-08-09T05:55:47.084Z,12.47
2018-08-09T05:58:15.906Z,13.40
2018-08-09T06:00:44.748Z,13.87
2018-08-09T06:03:13.724Z,12.90
2018-08-09T06:05:42.607Z,11.73
2018-08-09T06:08:11.449Z,11.40
2018-08-09T06:10:40.250Z,12.20
2018-08-09T06:13:09.110Z,12.27
2018-08-09T06:15:37.967Z,12.00
2018-08-09T06:18:07.206Z,12.27
2018-08-09T06:20:36.100Z,10.67
2018-08-09T06:23:05.175Z,12.07
2018-08-09T06:25:34.036Z,11.63
2018-08-09T06:28:03.023Z,11.80
2018-08-09T06:30:31.907Z,11.40
2018-08-09T06:33:00.879Z,11.70
2018-08-09T06:35:29.784Z,11.40
2018-08-09T06:37:58.663Z,12.67
2018-08-09T06:40:27.551Z,11.97
2018-08-09T06:42:56.439Z,11.57
2018-08-09T06:45:25.314Z,12.33
2018-08-09T06:47:54.139Z,13.30
2018-08-09T06:50:23.007Z,12.33
2018-08-09T06:52:52.004Z,11.50
2018-08-09T06:55:21.579Z,11.80
2018-08-09T06:57:50.687Z,11.83
2018-08-09T07:00:19.550Z,11.37
2018-08-09T07:02:48.463Z,12.17
2018-08-09T07:05:17.347Z,11.27
2018-08-09T07:07:46.660Z,11.57
2018-08-09T07:10:15.540Z,12.17
2018-08-09T07:12:44.977Z,12.07
2018-08-09T07:15:14.079Z,12.23
2018-08-09T07:17:43.197Z,13.17
2018-08-09T07:20:12.124Z,13.10
2018-08-09T07:22:41.438Z,13.03
2018-08-09T07:25:10.354Z,13.50
2018-08-09T07:27:39.203Z,11.63
2018-08-09T07:30:11.127Z,11.80
2018-08-09T07:32:40.234Z,13.27
2018-08-09T07:35:15.899Z,10.90
2018-08-09T07:37:44.788Z,12.20
2018-08-09T07:40:13.696Z,13.23
2018-08-09T07:42:43.030Z,13.30
2018-08-09T07:45:13.053Z,12.60
2018-08-09T07:47:42.223Z,13.50
2018-08-09T07:50:11.855Z,13.37
2018-08-09T07:52:41.116Z,12.57
2018-08-09T07:55:10.455Z,13.70
2018-08-09T07:57:40.202Z,12.80
2018-08-09T08:00:11.513Z,10.80
2018-08-09T08:02:40.872Z,14.00
2018-08-09T08:05:09.975Z,14.07
2018-08-09T08:07:39.320Z,12.60
2018-08-09T08:10:09.599Z,12.97
2018-08-09T08:12:39.321Z,13.17
2018-08-09T08:15:10.026Z,13.67
2018-08-09T08:17:39.390Z,13.30
2018-08-09T08:20:09.119Z,15.53
2018-08-09T08:22:38.497Z,14.27
2018-08-09T08:25:07.927Z,13.90
2018-08-09T08:27:36.950Z,14.70
2018-08-09T08:30:10.404Z,13.80
2018-08-09T08:32:40.939Z,14.13
2018-08-09T08:35:10.234Z,14.47
2018-08-09T08:37:40.297Z,13.83
2018-08-09T08:40:10.108Z,13.20
2018-08-09T08:42:39.140Z,12.93
2018-08-09T08:45:12.192Z,14.20
2018-08-09T08:47:42.171Z,13.70
2018-08-09T08:50:11.880Z,13.57
2018-08-09T08:52:41.116Z,12.30
2018-08-09T08:55:11.996Z,13.67
2018-08-09T08:57:40.926Z,15.13
2018-08-09T09:00:13.072Z,13.53
2018-08-09T09:02:43.539Z,13.17
2018-08-09T09:05:13.555Z,15.67
2018-08-09T09:07:42.929Z,14.23
2018-08-09T09:10:13.434Z,14.17
2018-08-09T09:12:43.405Z,14.10
2018-08-09T09:15:14.827Z,15.07
2018-08-09T09:17:44.551Z,13.03
2018-08-09T09:20:15.367Z,13.80
2018-08-09T09:22:45.116Z,13.70
2018-08-09T09:25:16.928Z,12.80
2018-08-09T09:27:46.458Z,14.43
2018-08-09T09:30:17.241Z,15.60
2018-08-09T09:32:46.719Z,15.17
2018-08-09T09:35:16.504Z,14.43
2018-08-09T09:37:46.224Z,14.60
2018-08-09T09:40:15.547Z,14.27
2018-08-09T09:42:44.913Z,14.10
2018-08-09T09:45:14.288Z,13.40
2018-08-09T09:47:43.996Z,14.00
2018-08-09T09:50:13.393Z,17.00
2018-08-09T09:52:44.016Z,16.10
2018-08-09T09:55:13.395Z,14.60
2018-08-09T09:57:42.792Z,13.47
2018-08-09T10:00:18.074Z,16.10
2018-08-09T10:02:47.228Z,15.90
2018-08-09T10:05:16.361Z,16.47
2018-08-09T10:07:45.551Z,13.20
2018-08-09T10:10:14.678Z,14.40
2018-08-09T10:12:44.105Z,15.40
2018-08-09T10:15:13.611Z,14.60
2018-08-09T10:17:42.855Z,15.27
2018-08-09T10:20:12.048Z,14.40
2018-08-09T10:22:41.367Z,14.10
2018-08-09T10:25:10.256Z,13.83
2018-08-09T10:27:39.590Z,14.00
2018-08-09T10:30:09.094Z,14.93
2018-08-09T10:32:38.343Z,16.63
2018-08-09T10:35:07.307Z,15.80
2018-08-09T10:37:36.187Z,16.67
2018-08-09T10:40:05.361Z,16.43
2018-08-09T10:42:34.318Z,15.87
2018-08-09T10:45:03.959Z,18.10
2018-08-09T10:47:32.944Z,17.30
2018-08-09T10:50:01.814Z,16.20
2018-08-09T10:52:30.713Z,16.87
2018-08-09T10:54:59.920Z,16.47
2018-08-09T10:57:28.820Z,17.90
2018-08-09T10:59:57.679Z,17.70
2018-08-09T11:02:26.629Z,19.47
2018-08-09T11:04:55.514Z,18.20
2018-08-09T11:07:24.385Z,17.70
2018-08-09T11:09:53.274Z,17.53
2018-08-09T11:12:22.139Z,18.50
2018-08-09T11:14:50.970Z,17.37
2018-08-09T11:17:19.845Z,17.33
2018-08-09T11:19:48.711Z,17.37
2018-08-09T11:22:17.592Z,18.40
2018-08-09T11:24:46.459Z,19.63
2018-08-09T11:27:15.339Z,18.77
2018-08-09T11:29:44.201Z,19.30
2018-08-09T11:32:13.818Z,18.10
2018-08-09T11:34:43.282Z,17.83
2018-08-09T11:37:12.260Z,18.97
2018-08-09T11:39:41.718Z,18.77
2018-08-09T11:42:10.947Z,18.17
2018-08-09T11:44:40.051Z,18.37
2018-08-09T11:47:09.222Z,19.60
2018-08-09T11:49:38.468Z,19.40
2018-08-09T11:52:07.489Z,20.07
2018-08-09T11:54:36.976Z,19.77
2018-08-09T11:57:06.508Z,19.30
2018-08-09T11:59:35.419Z,18.93
2018-08-09T12:02:04.483Z,19.90
2018-08-09T12:04:33.743Z,20.73
2018-08-09T12:07:02.672Z,21.23
2018-08-09T12:09:31.562Z,19.53
2018-08-09T12:12:00.423Z,20.07
2018-08-09T12:14:29.327Z,19.20
2018-08-09T12:16:58.273Z,20.83
2018-08-09T12:19:27.919Z,17.60
2018-08-09T12:21:57.033Z,19.40
2018-08-09T12:24:25.979Z,19.40
2018-08-09T12:26:54.986Z,19.30
2018-08-09T12:29:23.830Z,20.33
2018-08-09T12:31:53.308Z,20.00
2018-08-09T12:34:22.291Z,19.63
2018-08-09T12:36:51.178Z,19.40
2018-08-09T12:39:20.128Z,21.40
2018-08-09T12:41:49.240Z,20.00
2018-08-09T12:44:18.474Z,19.70
2018-08-09T12:46:48.984Z,20.17
2018-08-09T12:49:19.057Z,18.00
2018-08-09T12:51:48.701Z,19.30
2018-08-09T12:54:19.007Z,21.27
2018-08-09T12:56:49.497Z,20.90
2018-08-09T12:59:19.440Z,18.57
2018-08-09T13:01:49.116Z,18.30
2018-08-09T13:04:18.980Z,21.27
2018-08-09T13:06:48.556Z,19.07
2018-08-09T13:09:18.160Z,20.33
2018-08-09T13:11:48.270Z,18.80
2018-08-09T13:14:18.506Z,17.87
2018-08-09T13:16:47.705Z,20.50
2018-08-09T13:19:16.588Z,22.33
2018-08-09T13:21:45.576Z,19.47
2018-08-09T13:24:14.455Z,20.40
2018-08-09T13:26:43.365Z,20.03
2018-08-09T13:29:12.235Z,20.07
2018-08-09T13:31:41.886Z,21.20
2018-08-09T13:34:11.476Z,21.40
2018-08-09T13:36:40.439Z,21.50
2018-08-09T13:39:12.112Z,20.50
2018-08-09T13:41:42.207Z,22.00
2018-08-09T13:44:11.503Z,22.23
2018-08-09T13:46:40.474Z,22.80
2018-08-09T13:49:09.407Z,20.00
2018-08-09T13:51:38.388Z,21.70
2018-08-09T13:54:07.303Z,22.03
2018-08-09T13:56:36.162Z,21.37
2018-08-09T13:59:05.127Z,21.23
2018-08-09T14:01:34.614Z,21.30
2018-08-09T14:04:04.074Z,19.73
2018-08-09T14:06:33.808Z,21.37
2018-08-09T14:09:03.824Z,21.77
2018-08-09T14:11:32.905Z,21.83
2018-08-09T14:14:01.795Z,20.53
2018-08-09T14:16:30.739Z,20.70
2018-08-09T14:18:59.622Z,21.40
2018-08-09T14:21:28.806Z,20.00
2018-08-09T14:23:57.691Z,20.87
2018-08-09T14:26:26.668Z,21.20
2018-08-09T14:28:55.521Z,19.97
2018-08-09T14:31:24.478Z,18.30
2018-08-09T14:33:53.568Z,20.63
2018-08-09T14:36:22.836Z,21.30
2018-08-09T14:38:52.623Z,20.67
2018-08-09T14:41:22.294Z,21.60
2018-08-09T14:43:51.863Z,17.80
2018-08-09T14:46:21.661Z,18.43
2018-08-09T14:48:51.716Z,18.60
2018-08-09T14:51:21.217Z,19.33
2018-08-09T14:53:50.897Z,18.50
2018-08-09T14:56:19.791Z,20.50
2018-08-09T14:58:48.752Z,19.93
2018-08-09T15:01:17.771Z,19.23
2018-08-09T15:03:46.815Z,17.37
2018-08-09T15:06:16.738Z,19.13
2018-08-09T15:08:45.975Z,22.60
2018-08-09T15:11:15.264Z,17.97
2018-08-09T15:13:44.591Z,20.87
2018-08-09T15:16:13.554Z,17.33
2018-08-09T15:18:42.566Z,17.87
2018-08-09T15:21:11.860Z,17.80
2018-08-09T15:23:40.810Z,18.77
2018-08-09T15:26:09.671Z,17.97
2018-08-09T15:28:38.563Z,20.40
2018-08-09T15:31:07.494Z,18.90
2018-08-09T15:33:36.487Z,18.90
2018-08-09T15:36:05.950Z,17.90
2018-08-09T15:38:34.989Z,16.53
2018-08-09T15:41:03.987Z,18.23
2018-08-09T15:43:33.203Z,18.00
2018-08-09T15:46:02.150Z,19.80
2018-08-09T15:48:31.016Z,19.27
2018-08-09T15:51:00.256Z,18.40
2018-08-09T15:53:29.443Z,18.47
2018-08-09T15:55:58.367Z,19.20
2018-08-09T15:58:27.943Z,16.83
2018-08-09T16:00:57.182Z,18.53
2018-08-09T16:03:26.423Z,18.87
2018-08-09T16:05:55.606Z,18.57
2018-08-09T16:08:24.850Z,17.97
2018-08-09T16:10:54.144Z,17.93
2018-08-09T16:13:23.175Z,18.50
2018-08-09T16:15:52.264Z,17.77
2018-08-09T16:18:21.211Z,19.27
2018-08-09T16:20:50.131Z,17.60
2018-08-09T16:23:19.025Z,17.83
2018-08-09T16:25:47.967Z,19.37
2018-08-09T16:28:16.871Z,17.27
2018-08-09T16:30:45.831Z,19.60
2018-08-09T16:33:15.860Z,19.50
2018-08-09T16:35:45.019Z,19.20
2018-08-09T16:38:13.934Z,18.20
2018-08-09T16:40:42.860Z,20.03
2018-08-09T16:43:11.917Z,18.20
2018-08-09T16:45:40.828Z,17.87
2018-08-09T16:48:09.742Z,20.80
2018-08-09T16:50:38.638Z,18.90
2018-08-09T16:53:07.715Z,19.00
2018-08-09T16:55:36.722Z,19.47
2018-08-09T16:58:05.619Z,19.27
2018-08-09T17:00:34.785Z,18.13
2018-08-09T17:03:03.888Z,18.50
2018-08-09T17:05:32.873Z,18.87
2018-08-09T17:08:01.902Z,18.57
2018-08-09T17:10:30.831Z,18.90
2018-08-09T17:13:00.134Z,19.00
2018-08-09T17:15:29.355Z,20.20
2018-08-09T17:17:59.011Z,18.80
2018-08-09T17:20:30.183Z,19.43
2018-08-09T17:23:00.527Z,21.20
2018-08-09T17:25:29.499Z,20.00
2018-08-09T17:27:58.433Z,19.70
2018-08-09T17:30:28.278Z,20.83
2018-08-09T17:32:57.952Z,20.87
2018-08-09T17:35:26.966Z,20.53
2018-08-09T17:37:56.044Z,21.70
2018-08-09T17:40:28.108Z,21.30
2018-08-09T17:42:57.780Z,21.13
2018-08-09T17:45:29.942Z,21.77
2018-08-09T17:47:59.610Z,22.17
2018-08-09T17:50:28.600Z,21.97
2018-08-09T17:52:59.962Z,22.27
2018-08-09T17:55:29.395Z,21.33
2018-08-09T17:57:58.407Z,22.47
2018-08-09T18:00:29.534Z,21.17
2018-08-09T18:02:58.610Z,23.00
2018-08-09T18:05:27.571Z,22.37
2018-08-09T18:07:57.640Z,23.20
2018-08-09T18:10:30.267Z,24.53
2018-08-09T18:12:59.265Z,25.70
2018-08-09T18:15:29.156Z,25.20
2018-08-09T18:17:58.747Z,26.83
2018-08-09T18:20:31.279Z,23.53
2018-08-09T18:23:00.476Z,26.43
2018-08-09T18:25:29.404Z,27.67
2018-08-09T18:27:58.514Z,26.70
2018-08-09T18:30:27.503Z,27.57
2018-08-09T18:32:56.659Z,25.90
2018-08-09T18:35:25.596Z,28.50
2018-08-09T18:37:54.535Z,28.23
2018-08-09T18:40:25.596Z,29.70
2018-08-09T18:42:54.629Z,27.97
2018-08-09T18:45:23.922Z,30.13
2018-08-09T18:47:52.948Z,27.43
2018-08-09T18:50:24.794Z,29.40
2018-08-09T18:52:54.763Z,29.87
2018-08-09T18:55:23.676Z,29.23
2018-08-09T18:57:53.221Z,29.43
2018-08-09T19:00:27.399Z,29.07
2018-08-09T19:02:57.178Z,30.00
2018-08-09T19:05:26.509Z,32.23
2018-08-09T19:07:55.647Z,30.10
2018-08-09T19:10:28.480Z,31.63
2018-08-09T19:12:57.492Z,31.23
2018-08-09T19:16:06.091Z,31.60
2018-08-09T19:18:35.155Z,33.57
2018-08-09T19:21:04.190Z,31.07
2018-08-09T19:23:33.211Z,33.53
2018-08-09T19:26:02.159Z,33.93
2018-08-09T19:28:31.072Z,30.73
2018-08-09T19:30:59.997Z,33.70
2018-08-09T19:33:29.016Z,32.80
2018-08-09T19:35:57.935Z,33.50
2018-08-09T19:38:26.868Z,33.37
2018-08-09T19:40:55.911Z,34.70
2018-08-09T19:43:25.949Z,34.73
2018-08-09T19:45:54.862Z,33.20
2018-08-09T19:48:23.859Z,34.10
2018-08-09T19:50:52.784Z,33.30
2018-08-09T19:53:21.747Z,34.20
2018-08-09T19:55:50.660Z,33.67
2018-08-09T19:58:19.617Z,36.20
2018-08-09T20:00:48.504Z,34.87
2018-08-09T20:03:21.744Z,33.27
2018-08-09T20:05:50.663Z,34.87
2018-08-09T20:08:19.559Z,33.90
2018-08-09T20:10:48.434Z,32.50
2018-08-09T20:13:17.455Z,36.03
2018-08-09T20:15:46.392Z,35.33
2018-08-09T20:18:15.303Z,36.50
2018-08-09T20:20:44.278Z,36.60
2018-08-09T20:23:13.294Z,36.53
2018-08-09T20:25:42.236Z,35.57
2018-08-09T20:28:11.171Z,35.37
2018-08-09T20:30:40.163Z,36.97
2018-08-09T20:33:09.115Z,36.60
2018-08-09T20:35:38.066Z,34.77
2018-08-09T20:38:06.995Z,38.10
2018-08-09T20:40:35.953Z,36.93
2018-08-09T20:43:05.462Z,37.13
2018-08-09T20:45:34.412Z,37.63
2018-08-09T20:48:03.496Z,36.80
2018-08-09T20:50:32.414Z,39.27
2018-08-09T20:53:01.409Z,37.80
2018-08-09T20:55:30.281Z,38.07
2018-08-09T20:57:59.264Z,36.33
2018-08-09T21:00:29.974Z,36.90
2018-08-09T21:03:01.200Z,38.30
2018-08-09T21:05:31.959Z,38.67
2018-08-09T21:08:00.951Z,39.67
2018-08-09T21:10:30.162Z,38.53
2018-08-09T21:12:59.243Z,40.93
2018-08-09T21:15:28.234Z,38.27
2018-08-09T21:17:57.536Z,37.37
2018-08-09T21:20:26.490Z,41.10
2018-08-09T21:22:55.507Z,40.10
2018-08-09T21:25:24.414Z,40.60
2018-08-09T21:27:53.252Z,41.70
2018-08-09T21:30:22.811Z,39.97
2018-08-09T21:32:52.175Z,40.20
2018-08-09T21:35:21.071Z,39.63
2018-08-09T21:37:50.050Z,40.00
2018-08-09T21:40:18.935Z,39.10
2018-08-09T21:42:47.927Z,40.73
2018-08-09T21:45:18.067Z,41.13
2018-08-09T21:47:47.047Z,40.97
2018-08-09T21:50:17.704Z,39.97
2018-08-09T21:52:46.702Z,39.90
2018-08-09T21:55:15.670Z,38.90
2018-08-09T21:57:45.383Z,39.97
2018-08-09T22:00:53.912Z,40.50
2018-08-09T22:03:25.381Z,41.43
2018-08-09T22:06:00.035Z,41.63
2018-08-09T22:08:34.640Z,40.37
2018-08-09T22:11:09.775Z,37.40
2018-08-09T22:13:44.479Z,40.03
2018-08-09T22:16:19.083Z,41.90
2018-08-09T22:18:53.583Z,39.03
2018-08-09T22:21:28.128Z,37.00
2018-08-09T22:23:57.176Z,38.90
2018-08-09T22:26:26.189Z,42.67
2018-08-09T22:28:55.106Z,41.77
2018-08-09T22:31:24.014Z,40.93
2018-08-09T22:33:53.235Z,39.83
2018-08-09T22:36:22.239Z,41.27
2018-08-09T22:38:51.128Z,42.03
2018-08-09T22:41:20.055Z,41.00
2018-08-09T22:43:49.031Z,41.90
2018-08-09T22:46:17.967Z,40.47
2018-08-09T22:48:46.875Z,40.83
2018-08-09T22:51:15.835Z,41.73
2018-08-09T22:53:44.745Z,40.80
2018-08-09T22:56:13.678Z,39.93
2018-08-09T22:58:42.579Z,42.13
2018-08-09T23:01:11.583Z,42.97
2018-08-09T23:03:40.612Z,41.63
2018-08-09T23:06:09.708Z,41.13
2018-08-09T23:08:38.639Z,40.40
2018-08-09T23:11:07.960Z,41.60
2018-08-09T23:13:37.007Z,41.00
2018-08-09T23:16:06.433Z,40.40
2018-08-09T23:18:35.319Z,42.37
2018-08-09T23:21:04.271Z,40.63
2018-08-09T23:23:33.268Z,44.00
2018-08-09T23:26:02.223Z,42.10
2018-08-09T23:28:31.206Z,42.03
2018-08-09T23:31:00.093Z,42.57
2018-08-09T23:33:29.091Z,42.30
2018-08-09T23:35:57.987Z,44.07
2018-08-09T23:38:27.078Z,40.87
2018-08-09T23:40:55.926Z,42.30
2018-08-09T23:43:24.927Z,42.47
2018-08-09T23:45:53.759Z,41.97
2018-08-09T23:48:22.674Z,42.90
2018-08-09T23:50:51.576Z,42.40
2018-08-09T23:53:20.503Z,44.10
2018-08-09T23:55:49.343Z,42.53
2018-08-09T23:58:18.271Z,41.07
